Time;durP1;ratioP1;P1;durP2;ratioP2;P2;SDS_P1;SDS_P2;PMS_P1;PMS_P2;Temp;Humidity;BMP_temperature;BMP_pressure;BME280_temperature;BME280_humidity;BME280_pressure;Samples;Min_cycle;Max_cycle;Signal;HPM_P1;HPM_P2
2022/11/30 00:02:24;;;;;;;4.32;3.08;;;;;;;;;;5061475;28;20028;-74
2022/11/30 00:04:50;;;;;;;6.25;2.70;;;;;;;;;;5063606;28;20068;-72
2022/11/30 00:07:16;;;;;;;3.75;2.97;;;;;;;;;;5064577;28;20029;-74
2022/11/30 00:09:42;;;;;;;6.97;3.10;;;;;;;;;;5064922;28;20384;-72
2022/11/30 00:12:09;;;;;;;5.10;2.88;;;;;;;;;;5065963;28;20040;-73
2022/11/30 00:14:35;;;;;;;4.10;3.22;;;;;;;;;;5066138;28;20032;-70
2022/11/30 00:17:01;;;;;;;4.45;3.25;;;;;;;;;;5061427;28;20233;-73
2022/11/30 00:19:27;;;;;;;5.45;3.25;;;;;;;;;;5063408;28;20642;-73
2022/11/30 00:21:53;;;;;;;3.78;2.45;;;;;;;;;;5066135;28;20511;-73
2022/11/30 00:24:19;;;;;;;3.30;2.58;;;;;;;;;;5069895;28;20028;-72
2022/11/30 00:26:45;;;;;;;9.23;2.95;;;;;;;;;;5056698;28;20021;-72
2022/11/30 00:29:12;;;;;;;3.30;2.83;;;;;;;;;;5064324;28;20028;-74
2022/11/30 00:31:38;;;;;;;5.47;2.97;;;;;;;;;;5068381;28;20029;-70
2022/11/30 00:34:04;;;;;;;7.43;2.97;;;;;;;;;;5062591;28;20020;-72
2022/11/30 00:36:30;;;;;;;7.78;2.85;;;;;;;;;;5062535;28;20024;-74
2022/11/30 00:38:56;;;;;;;3.53;2.53;;;;;;;;;;5063150;28;20024;-74
2022/11/30 00:41:22;;;;;;;4.22;2.50;;;;;;;;;;5064238;28;20032;-71
2022/11/30 00:43:48;;;;;;;4.38;2.80;;;;;;;;;;5064560;28;20070;-74
2022/11/30 00:46:15;;;;;;;5.57;2.67;;;;;;;;;;5062414;28;20032;-72
2022/11/30 00:48:41;;;;;;;5.78;2.60;;;;;;;;;;5059508;28;20043;-73
2022/11/30 00:51:09;;;;;;;3.83;2.38;;;;;;;;;;5070127;28;20056;-74
2022/11/30 00:53:35;;;;;;;7.20;2.28;;;;;;;;;;5065610;28;20162;-71
2022/11/30 00:56:01;;;;;;;4.18;2.85;;;;;;;;;;5066383;28;20024;-74
2022/11/30 00:58:27;;;;;;;5.65;2.70;;;;;;;;;;5056745;28;20036;-73
2022/11/30 01:00:53;;;;;;;5.47;2.25;;;;;;;;;;5062535;28;20033;-73
2022/11/30 01:03:19;;;;;;;7.00;2.60;;;;;;;;;;5058244;28;20096;-73
2022/11/30 01:05:46;;;;;;;4.80;2.60;;;;;;;;;;5063008;28;20078;-73
2022/11/30 01:08:12;;;;;;;4.38;2.80;;;;;;;;;;5058382;28;20363;-74
2022/11/30 01:10:40;;;;;;;4.18;2.92;;;;;;;;;;5063412;28;20028;-73
2022/11/30 01:13:06;;;;;;;3.67;2.40;;;;;;;;;;5059987;28;20029;-74
2022/11/30 01:15:35;;;;;;;4.25;2.60;;;;;;;;;;5061821;28;20051;-72
2022/11/30 01:18:02;;;;;;;4.32;2.40;;;;;;;;;;5056275;28;20555;-73
2022/11/30 01:20:28;;;;;;;7.05;2.80;;;;;;;;;;5060417;28;20037;-74
2022/11/30 01:22:54;;;;;;;6.43;2.78;;;;;;;;;;5063910;28;20110;-71
2022/11/30 01:25:21;;;;;;;5.43;2.67;;;;;;;;;;5064236;28;20025;-72
2022/11/30 01:27:50;;;;;;;7.63;2.65;;;;;;;;;;5063018;28;20029;-73
2022/11/30 01:30:16;;;;;;;5.40;2.75;;;;;;;;;;5061319;28;20084;-72
2022/11/30 01:32:43;;;;;;;5.93;2.50;;;;;;;;;;5061118;28;20170;-74
2022/11/30 01:35:09;;;;;;;6.88;3.00;;;;;;;;;;5057787;28;20415;-73
2022/11/30 01:37:35;;;;;;;4.32;2.70;;;;;;;;;;5064631;28;20531;-73
2022/11/30 01:40:01;;;;;;;3.20;2.58;;;;;;;;;;5060862;28;20037;-73
2022/11/30 01:42:28;;;;;;;3.65;2.20;;;;;;;;;;5061342;28;20187;-74
2022/11/30 01:44:58;;;;;;;3.63;2.88;;;;;;;;;;5056292;28;20123;-73
2022/11/30 01:47:39;;;;;;;7.55;2.75;;;;;;;;;;5063387;28;20056;-71
2022/11/30 01:50:10;;;;;;;8.90;2.35;;;;;;;;;;5058961;28;20033;-73
2022/11/30 01:52:40;;;;;;;4.13;2.45;;;;;;;;;;5060411;28;20025;-74
2022/11/30 01:55:06;;;;;;;4.70;2.20;;;;;;;;;;5058510;28;20069;-74
2022/11/30 01:57:38;;;;;;;4.28;2.45;;;;;;;;;;5057290;28;20021;-73
2022/11/30 02:00:09;;;;;;;3.88;2.55;;;;;;;;;;5054019;28;20651;-74
2022/11/30 02:02:47;;;;;;;2.70;2.27;;;;;;;;;;5059177;28;20020;-73
2022/11/30 02:05:14;;;;;;;3.70;2.38;;;;;;;;;;5058270;28;20029;-74
2022/11/30 02:07:40;;;;;;;5.75;2.05;;;;;;;;;;5059270;28;20028;-73
2022/11/30 02:10:07;;;;;;;4.82;2.33;;;;;;;;;;5062468;28;20024;-74
2022/11/30 02:12:33;;;;;;;3.00;2.22;;;;;;;;;;5060231;28;20077;-72
2022/11/30 02:15:03;;;;;;;3.55;2.17;;;;;;;;;;5054614;28;20029;-74
2022/11/30 02:17:41;;;;;;;3.60;2.30;;;;;;;;;;5055834;28;20385;-74
2022/11/30 02:20:07;;;;;;;3.35;2.35;;;;;;;;;;5057157;28;20075;-70
2022/11/30 02:23:05;;;;;;;3.25;2.20;;;;;;;;;;5060749;28;20034;-73
2022/11/30 02:25:50;;;;;;;3.10;2.30;;;;;;;;;;5018029;28;20044;-74
2022/11/30 02:28:34;;;;;;;5.85;2.20;;;;;;;;;;5059214;28;20029;-73
2022/11/30 02:31:02;;;;;;;2.92;2.00;;;;;;;;;;5060174;28;20028;-72
2022/11/30 02:33:29;;;;;;;2.35;1.90;;;;;;;;;;5056430;28;20370;-74
2022/11/30 02:35:57;;;;;;;2.53;1.98;;;;;;;;;;5058545;28;20434;-74
2022/11/30 02:38:24;;;;;;;3.83;1.92;;;;;;;;;;5071356;28;20035;-73
2022/11/30 02:40:51;;;;;;;2.47;1.50;;;;;;;;;;5053231;28;20028;-73
2022/11/30 02:43:18;;;;;;;3.08;1.50;;;;;;;;;;5056400;28;20032;-74
2022/11/30 02:45:55;;;;;;;3.28;1.73;;;;;;;;;;5050599;28;20492;-73
2022/11/30 02:48:42;;;;;;;2.10;1.30;;;;;;;;;;5057657;28;20048;-74
2022/11/30 02:51:10;;;;;;;1.70;1.30;;;;;;;;;;5048339;28;20436;-74
2022/11/30 02:53:36;;;;;;;1.95;1.38;;;;;;;;;;5053896;28;20036;-74
2022/11/30 02:56:03;;;;;;;1.60;1.30;;;;;;;;;;5052049;28;20595;-74
2022/11/30 02:58:29;;;;;;;2.95;1.38;;;;;;;;;;5053878;28;20059;-74
2022/11/30 03:00:56;;;;;;;2.60;1.55;;;;;;;;;;5059768;28;20776;-74
2022/11/30 03:03:22;;;;;;;2.75;1.50;;;;;;;;;;5058078;28;20039;-74
2022/11/30 03:05:48;;;;;;;3.08;1.80;;;;;;;;;;5052150;28;20043;-74
2022/11/30 03:08:14;;;;;;;2.63;1.67;;;;;;;;;;5052597;28;20047;-71
2022/11/30 03:10:41;;;;;;;2.65;1.60;;;;;;;;;;5060833;28;20035;-73
2022/11/30 03:13:07;;;;;;;3.42;1.65;;;;;;;;;;5063538;28;20029;-73
2022/11/30 03:15:33;;;;;;;2.90;1.90;;;;;;;;;;5059533;28;20029;-70
2022/11/30 03:18:03;;;;;;;3.90;1.90;;;;;;;;;;5063212;28;20037;-72
2022/11/30 03:20:29;;;;;;;2.60;2.00;;;;;;;;;;5053451;28;20044;-73
2022/11/30 03:22:58;;;;;;;2.85;1.60;;;;;;;;;;5056906;28;20834;-73
2022/11/30 03:25:24;;;;;;;3.58;1.70;;;;;;;;;;5056897;28;20097;-72
2022/11/30 03:27:51;;;;;;;2.50;1.60;;;;;;;;;;5064645;28;20150;-74
2022/11/30 03:30:17;;;;;;;1.40;1.00;;;;;;;;;;5060199;28;20032;-72
2022/11/30 03:32:43;;;;;;;2.65;1.00;;;;;;;;;;5061741;28;20032;-73
2022/11/30 03:35:10;;;;;;;2.95;1.40;;;;;;;;;;5060568;28;20025;-73
2022/11/30 03:37:36;;;;;;;4.20;1.70;;;;;;;;;;5062353;28;20032;-72
2022/11/30 03:40:02;;;;;;;1.48;1.17;;;;;;;;;;5059088;28;20039;-74
2022/11/30 03:42:29;;;;;;;2.15;0.95;;;;;;;;;;5058565;28;20036;-73
2022/11/30 03:44:55;;;;;;;2.85;1.30;;;;;;;;;;5058034;28;20032;-73
2022/11/30 03:47:21;;;;;;;1.88;1.23;;;;;;;;;;5058541;28;20044;-72
2022/11/30 03:49:47;;;;;;;2.78;1.45;;;;;;;;;;5063365;28;20035;-73
2022/11/30 03:52:13;;;;;;;1.55;1.10;;;;;;;;;;5057619;28;20538;-73
2022/11/30 03:54:39;;;;;;;3.40;1.20;;;;;;;;;;5058993;28;20133;-72
2022/11/30 03:57:05;;;;;;;3.67;1.00;;;;;;;;;;5053959;28;20043;-73
2022/11/30 03:59:31;;;;;;;2.33;1.17;;;;;;;;;;5058463;28;20492;-73
2022/11/30 04:01:57;;;;;;;2.30;1.30;;;;;;;;;;5060066;28;20127;-73
2022/11/30 04:04:24;;;;;;;3.17;1.35;;;;;;;;;;5057850;28;20433;-69
2022/11/30 04:06:50;;;;;;;1.95;1.10;;;;;;;;;;5059282;28;20467;-69
2022/11/30 04:09:16;;;;;;;2.53;1.35;;;;;;;;;;5060775;28;20556;-70
2022/11/30 04:11:42;;;;;;;1.33;1.10;;;;;;;;;;5060694;28;20533;-71
2022/11/30 04:14:08;;;;;;;2.05;1.50;;;;;;;;;;5057048;28;20089;-69
2022/11/30 04:16:35;;;;;;;2.65;1.38;;;;;;;;;;5054710;28;20499;-69
2022/11/30 04:19:01;;;;;;;1.60;1.10;;;;;;;;;;5058219;28;20036;-70
2022/11/30 04:21:27;;;;;;;2.45;1.35;;;;;;;;;;5071774;28;20032;-70
2022/11/30 04:23:53;;;;;;;2.10;1.45;;;;;;;;;;5054516;28;20346;-72
2022/11/30 04:26:19;;;;;;;1.58;1.00;;;;;;;;;;5056456;28;20394;-69
2022/11/30 04:28:46;;;;;;;1.42;1.13;;;;;;;;;;5058716;28;20028;-73
2022/11/30 04:31:12;;;;;;;2.05;1.13;;;;;;;;;;5057360;28;20249;-69
2022/11/30 04:33:39;;;;;;;1.10;0.93;;;;;;;;;;5053757;28;20020;-74
2022/11/30 04:36:06;;;;;;;4.30;1.20;;;;;;;;;;5056860;28;20111;-73
2022/11/30 04:38:32;;;;;;;2.15;1.27;;;;;;;;;;5053777;28;20083;-70
2022/11/30 04:40:59;;;;;;;1.90;1.17;;;;;;;;;;5062722;28;20036;-69
2022/11/30 04:43:25;;;;;;;1.60;1.08;;;;;;;;;;5058547;28;20028;-71
2022/11/30 04:45:51;;;;;;;1.80;1.13;;;;;;;;;;5055704;28;20028;-72
2022/11/30 04:48:18;;;;;;;2.03;1.10;;;;;;;;;;5073168;28;20454;-70
2022/11/30 04:50:44;;;;;;;2.63;1.25;;;;;;;;;;5058236;28;20040;-69
2022/11/30 04:53:10;;;;;;;1.85;0.98;;;;;;;;;;5054211;28;20030;-73
2022/11/30 04:55:37;;;;;;;1.45;1.00;;;;;;;;;;5054446;28;20035;-69
2022/11/30 04:58:04;;;;;;;1.90;1.33;;;;;;;;;;5054771;28;20032;-71
2022/11/30 05:00:30;;;;;;;1.83;1.33;;;;;;;;;;5054038;28;20168;-69
2022/11/30 05:02:56;;;;;;;1.63;1.10;;;;;;;;;;5048050;28;20094;-69
2022/11/30 05:05:22;;;;;;;2.92;1.08;;;;;;;;;;5052374;28;20078;-70
2022/11/30 05:07:50;;;;;;;1.85;1.05;;;;;;;;;;5058579;28;20106;-70
2022/11/30 05:10:16;;;;;;;1.23;0.88;;;;;;;;;;5058206;28;20036;-69
2022/11/30 05:12:42;;;;;;;1.63;1.10;;;;;;;;;;5060983;28;20032;-70
2022/11/30 05:15:09;;;;;;;2.20;1.20;;;;;;;;;;5053446;28;20096;-69
2022/11/30 05:17:35;;;;;;;2.47;1.23;;;;;;;;;;5056447;28;20032;-70
2022/11/30 05:20:01;;;;;;;1.10;0.90;;;;;;;;;;5059131;28;20040;-69
2022/11/30 05:22:27;;;;;;;5.78;1.17;;;;;;;;;;5057256;28;20543;-71
2022/11/30 05:24:53;;;;;;;2.50;1.30;;;;;;;;;;5056622;28;20041;-69
2022/11/30 05:27:20;;;;;;;3.58;1.25;;;;;;;;;;5058353;28;20028;-69
2022/11/30 05:29:46;;;;;;;1.60;1.00;;;;;;;;;;5051217;28;20033;-69
2022/11/30 05:32:12;;;;;;;4.80;1.10;;;;;;;;;;5058613;28;20024;-69
2022/11/30 05:34:38;;;;;;;1.50;1.00;;;;;;;;;;5060353;28;20409;-68
2022/11/30 05:37:04;;;;;;;5.25;1.38;;;;;;;;;;5059209;28;20035;-70
2022/11/30 05:39:30;;;;;;;2.33;1.27;;;;;;;;;;5054306;28;20040;-69
2022/11/30 05:41:56;;;;;;;3.22;1.35;;;;;;;;;;5055702;28;20035;-68
2022/11/30 05:44:22;;;;;;;2.92;1.40;;;;;;;;;;5055886;28;20031;-70
2022/11/30 05:46:48;;;;;;;2.13;0.93;;;;;;;;;;5059247;28;20020;-69
2022/11/30 05:49:15;;;;;;;2.33;1.35;;;;;;;;;;5056291;28;20386;-70
2022/11/30 05:51:41;;;;;;;3.03;1.10;;;;;;;;;;5047348;28;20071;-69
2022/11/30 05:54:07;;;;;;;6.85;1.35;;;;;;;;;;5054400;28;20029;-70
2022/11/30 05:56:33;;;;;;;4.25;1.17;;;;;;;;;;5055967;28;20522;-72
2022/11/30 05:58:59;;;;;;;3.20;1.25;;;;;;;;;;5054855;28;20043;-69
2022/11/30 06:01:27;;;;;;;2.20;1.20;;;;;;;;;;5054868;28;20047;-69
2022/11/30 06:03:53;;;;;;;1.70;1.00;;;;;;;;;;5060782;28;20077;-70
2022/11/30 06:06:20;;;;;;;3.97;1.15;;;;;;;;;;5052546;28;20024;-70
2022/11/30 06:08:46;;;;;;;5.82;1.10;;;;;;;;;;5056149;28;21143;-69
2022/11/30 06:11:13;;;;;;;4.07;1.08;;;;;;;;;;5058144;28;20594;-74
2022/11/30 06:13:39;;;;;;;2.63;1.05;;;;;;;;;;5051510;28;20066;-69
2022/11/30 06:16:06;;;;;;;2.92;1.20;;;;;;;;;;5052277;28;20318;-74
2022/11/30 06:18:32;;;;;;;3.30;1.27;;;;;;;;;;5054601;28;20020;-70
2022/11/30 06:21:02;;;;;;;2.10;1.00;;;;;;;;;;5052115;28;20210;-69
2022/11/30 06:23:28;;;;;;;4.38;1.20;;;;;;;;;;5058671;28;20121;-70
2022/11/30 06:25:55;;;;;;;5.55;1.00;;;;;;;;;;5056064;28;20036;-68
2022/11/30 06:28:21;;;;;;;4.97;1.27;;;;;;;;;;5057518;28;20531;-69
2022/11/30 06:30:47;;;;;;;7.85;1.50;;;;;;;;;;5064750;28;20044;-69
2022/11/30 06:33:13;;;;;;;3.17;1.15;;;;;;;;;;5061887;28;20024;-68
2022/11/30 06:35:45;;;;;;;3.85;1.05;;;;;;;;;;5056767;28;20035;-69
2022/11/30 06:38:12;;;;;;;2.17;0.93;;;;;;;;;;5058954;28;20521;-69
2022/11/30 06:40:38;;;;;;;3.60;1.10;;;;;;;;;;5058219;28;20041;-69
2022/11/30 06:43:04;;;;;;;4.47;1.25;;;;;;;;;;5054067;28;20483;-68
2022/11/30 06:45:30;;;;;;;4.40;1.20;;;;;;;;;;5053625;28;20105;-69
2022/11/30 06:47:57;;;;;;;6.15;3.70;;;;;;;;;;5055906;28;20114;-79
2022/11/30 06:50:23;;;;;;;11.90;1.77;;;;;;;;;;5051298;28;20493;-74
2022/11/30 06:52:49;;;;;;;5.43;1.00;;;;;;;;;;5055804;28;20050;-69
2022/11/30 06:55:15;;;;;;;7.43;1.60;;;;;;;;;;5061502;28;20032;-69
2022/11/30 06:57:41;;;;;;;2.97;1.48;;;;;;;;;;5066464;28;20032;-69
2022/11/30 07:00:08;;;;;;;2.63;1.48;;;;;;;;;;5056363;28;20039;-71
2022/11/30 07:02:34;;;;;;;4.57;1.63;;;;;;;;;;5058339;28;20024;-71
2022/11/30 07:05:01;;;;;;;7.40;1.55;;;;;;;;;;5051473;28;20434;-70
2022/11/30 07:07:30;;;;;;;3.92;1.63;;;;;;;;;;5057447;28;20036;-74
2022/11/30 07:09:57;;;;;;;3.80;2.47;;;;;;;;;;5052047;28;20087;-72
2022/11/30 07:12:23;;;;;;;4.50;2.10;;;;;;;;;;5055919;28;20087;-71
2022/11/30 07:14:55;;;;;;;8.30;2.30;;;;;;;;;;5050522;28;20415;-70
2022/11/30 07:17:22;;;;;;;6.80;1.45;;;;;;;;;;5052428;28;20926;-71
2022/11/30 07:19:48;;;;;;;6.95;1.52;;;;;;;;;;5052127;28;20045;-72
2022/11/30 07:22:14;;;;;;;2.72;1.08;;;;;;;;;;5055895;28;20035;-70
2022/11/30 07:27:25;;;;;;;8.63;2.63;;;;;;;;;;5051658;28;20173;-70
2022/11/30 07:29:52;;;;;;;6.43;2.42;;;;;;;;;;5056336;28;20035;-70
2022/11/30 07:32:18;;;;;;;4.82;2.35;;;;;;;;;;5053308;28;20101;-70
2022/11/30 07:34:45;;;;;;;3.88;2.28;;;;;;;;;;5050963;28;20036;-70
2022/11/30 07:37:11;;;;;;;3.70;2.22;;;;;;;;;;5050953;28;20017;-70
2022/11/30 07:39:37;;;;;;;5.47;2.17;;;;;;;;;;5052829;28;20101;-70
2022/11/30 07:42:03;;;;;;;4.40;2.40;;;;;;;;;;5053690;28;20048;-71
2022/11/30 07:44:30;;;;;;;3.00;2.53;;;;;;;;;;5047237;28;20028;-70
2022/11/30 07:46:56;;;;;;;5.38;2.80;;;;;;;;;;5053488;28;20448;-71
2022/11/30 07:49:22;;;;;;;6.38;2.22;;;;;;;;;;5053673;28;20139;-71
2022/11/30 07:51:48;;;;;;;9.40;2.42;;;;;;;;;;5053144;28;20029;-71
2022/11/30 07:54:14;;;;;;;7.30;2.30;;;;;;;;;;5058128;28;20571;-71
2022/11/30 07:56:40;;;;;;;4.95;1.98;;;;;;;;;;5051989;28;20488;-72
2022/11/30 07:59:07;;;;;;;5.22;2.17;;;;;;;;;;5053944;28;20048;-71
2022/11/30 08:01:33;;;;;;;5.68;1.77;;;;;;;;;;5061905;28;20024;-71
2022/11/30 08:03:59;;;;;;;5.30;1.58;;;;;;;;;;5055654;28;20297;-72
2022/11/30 08:06:27;;;;;;;3.90;1.40;;;;;;;;;;5056111;28;20476;-71
2022/11/30 08:08:54;;;;;;;2.33;0.90;;;;;;;;;;5063124;28;20048;-72
2022/11/30 08:11:22;;;;;;;2.60;1.08;;;;;;;;;;5058280;28;20047;-71
2022/11/30 08:13:48;;;;;;;2.95;0.90;;;;;;;;;;5058863;28;20039;-71
2022/11/30 08:16:15;;;;;;;4.40;1.30;;;;;;;;;;5062600;28;20028;-70
2022/11/30 08:18:42;;;;;;;4.55;1.02;;;;;;;;;;5056799;28;20040;-70
2022/11/30 08:21:09;;;;;;;2.67;1.30;;;;;;;;;;5056488;28;20042;-71
2022/11/30 08:23:39;;;;;;;2.03;1.08;;;;;;;;;;5054187;28;20043;-70
2022/11/30 08:26:11;;;;;;;2.67;1.50;;;;;;;;;;5062163;28;20027;-70
2022/11/30 08:28:37;;;;;;;5.05;2.35;;;;;;;;;;5060763;28;20029;-71
2022/11/30 08:31:04;;;;;;;4.95;2.63;;;;;;;;;;5054522;28;20085;-70
2022/11/30 08:33:31;;;;;;;4.05;2.70;;;;;;;;;;5053583;28;20039;-70
2022/11/30 08:36:13;;;;;;;5.47;2.63;;;;;;;;;;5057583;28;20107;-71
2022/11/30 08:38:41;;;;;;;5.95;2.70;;;;;;;;;;5057690;28;20024;-72
2022/11/30 08:41:08;;;;;;;6.95;3.00;;;;;;;;;;5056517;28;20044;-72
2022/11/30 08:43:34;;;;;;;4.40;2.22;;;;;;;;;;5065413;28;20487;-79
2022/11/30 08:46:05;;;;;;;4.13;2.28;;;;;;;;;;5057045;28;20472;-72
2022/11/30 08:48:32;;;;;;;4.43;2.30;;;;;;;;;;5052682;28;20060;-72
2022/11/30 08:51:05;;;;;;;4.65;2.35;;;;;;;;;;5057026;28;20560;-72
2022/11/30 08:53:31;;;;;;;4.55;2.20;;;;;;;;;;5057581;28;20032;-76
2022/11/30 08:55:58;;;;;;;5.20;2.25;;;;;;;;;;5058105;28;20163;-73
2022/11/30 08:58:25;;;;;;;4.05;2.42;;;;;;;;;;5057973;28;20028;-77
2022/11/30 09:00:51;;;;;;;4.72;1.92;;;;;;;;;;5058493;28;20037;-75
2022/11/30 09:03:17;;;;;;;4.70;2.00;;;;;;;;;;5059876;28;20023;-78
2022/11/30 09:05:44;;;;;;;4.93;1.80;;;;;;;;;;5054024;28;20028;-77
2022/11/30 09:08:10;;;;;;;3.58;1.90;;;;;;;;;;5053424;28;20369;-78
2022/11/30 09:10:36;;;;;;;5.22;1.60;;;;;;;;;;5055957;28;20071;-75
2022/11/30 09:13:02;;;;;;;5.53;1.58;;;;;;;;;;5050091;28;20341;-76
2022/11/30 09:15:28;;;;;;;5.32;1.80;;;;;;;;;;5056394;28;20024;-80
2022/11/30 09:17:55;;;;;;;3.83;1.95;;;;;;;;;;5058389;28;20033;-78
2022/11/30 09:20:21;;;;;;;4.18;2.05;;;;;;;;;;5057377;28;20036;-73
2022/11/30 09:22:47;;;;;;;2.50;1.80;;;;;;;;;;5056920;28;20025;-81
2022/11/30 09:25:13;;;;;;;3.08;1.65;;;;;;;;;;5055854;28;20028;-79
2022/11/30 09:27:39;;;;;;;2.67;1.45;;;;;;;;;;5063265;28;20112;-71
2022/11/30 09:30:06;;;;;;;1.73;1.48;;;;;;;;;;5057996;28;20025;-72
2022/11/30 09:32:32;;;;;;;3.78;1.63;;;;;;;;;;5061265;28;20439;-78
2022/11/30 09:34:58;;;;;;;3.60;1.90;;;;;;;;;;5057928;28;20029;-73
2022/11/30 09:37:24;;;;;;;4.03;2.05;;;;;;;;;;5058840;28;20024;-77
2022/11/30 09:39:51;;;;;;;3.08;2.20;;;;;;;;;;5058882;28;20028;-78
2022/11/30 09:42:41;;;;;;;11.90;1.98;;;;;;;;;;5057197;28;20036;-78
2022/11/30 09:45:23;;;;;;;3.83;2.00;;;;;;;;;;5057788;28;20032;-81
2022/11/30 09:48:08;;;;;;;4.75;2.08;;;;;;;;;;5055175;28;20044;-71
2022/11/30 09:50:38;;;;;;;4.35;1.45;;;;;;;;;;5054768;28;20024;-80
2022/11/30 09:53:06;;;;;;;5.60;1.45;;;;;;;;;;5056315;28;20389;-78
2022/11/30 09:55:42;;;;;;;3.88;1.63;;;;;;;;;;5057513;28;20016;-70
2022/11/30 09:58:13;;;;;;;4.10;2.05;;;;;;;;;;5057438;28;20024;-72
2022/11/30 10:00:39;;;;;;;3.00;1.38;;;;;;;;;;5067072;28;20048;-71
2022/11/30 10:03:06;;;;;;;5.88;1.83;;;;;;;;;;5056055;28;20037;-84
2022/11/30 10:05:41;;;;;;;3.90;1.60;;;;;;;;;;5061026;28;20028;-74
2022/11/30 10:08:07;;;;;;;5.32;2.15;;;;;;;;;;5053656;28;20036;-74
2022/11/30 10:10:42;;;;;;;6.50;2.00;;;;;;;;;;5056687;28;20017;-78
2022/11/30 10:13:08;;;;;;;5.75;1.75;;;;;;;;;;5056184;28;20036;-83
2022/11/30 10:15:53;;;;;;;2.17;1.20;;;;;;;;;;5058673;28;20027;-70
2022/11/30 10:18:25;;;;;;;2.63;1.23;;;;;;;;;;5052188;28;20077;-76
2022/11/30 10:20:57;;;;;;;1.55;1.00;;;;;;;;;;5057243;28;20149;-75
2022/11/30 10:23:33;;;;;;;3.92;1.00;;;;;;;;;;5057282;28;20107;-78
2022/11/30 10:26:07;;;;;;;1.23;0.80;;;;;;;;;;5057326;28;20033;-71
2022/11/30 10:28:52;;;;;;;3.38;1.30;;;;;;;;;;5057297;28;20025;-72
2022/11/30 10:31:28;;;;;;;2.08;1.30;;;;;;;;;;5053723;28;20074;-72
2022/11/30 10:33:56;;;;;;;2.13;1.50;;;;;;;;;;5052167;28;20024;-73
2022/11/30 10:36:37;;;;;;;2.90;1.38;;;;;;;;;;5056159;28;20021;-71
2022/11/30 10:39:13;;;;;;;3.38;1.50;;;;;;;;;;5054240;28;20039;-72
2022/11/30 10:41:43;;;;;;;1.80;1.50;;;;;;;;;;5053954;28;20040;-72
2022/11/30 10:44:24;;;;;;;5.88;1.60;;;;;;;;;;5057771;28;20513;-72
2022/11/30 10:46:55;;;;;;;2.13;1.27;;;;;;;;;;5052985;28;20025;-72
2022/11/30 10:49:22;;;;;;;3.97;1.80;;;;;;;;;;5055886;28;20822;-72
2022/11/30 10:51:56;;;;;;;4.45;1.75;;;;;;;;;;5054578;28;20051;-71
2022/11/30 10:54:23;;;;;;;4.88;1.88;;;;;;;;;;5052213;28;20016;-72
2022/11/30 10:56:49;;;;;;;4.88;1.90;;;;;;;;;;5056698;28;20107;-72
2022/11/30 10:59:22;;;;;;;3.97;2.13;;;;;;;;;;5052233;28;20036;-73
2022/11/30 11:01:48;;;;;;;2.58;1.70;;;;;;;;;;5063229;28;20031;-72
2022/11/30 11:04:22;;;;;;;3.13;1.60;;;;;;;;;;5051990;28;20040;-72
2022/11/30 11:07:06;;;;;;;3.05;1.45;;;;;;;;;;5048447;28;20028;-72
2022/11/30 11:09:33;;;;;;;2.63;1.40;;;;;;;;;;5052455;28;20108;-72
2022/11/30 11:12:00;;;;;;;6.05;1.73;;;;;;;;;;5055757;28;20025;-74
2022/11/30 11:14:27;;;;;;;3.85;1.38;;;;;;;;;;5049585;28;20037;-72
2022/11/30 11:17:00;;;;;;;6.53;2.30;;;;;;;;;;5057358;28;20025;-72
2022/11/30 11:19:34;;;;;;;2.88;2.05;;;;;;;;;;5053875;28;20044;-72
2022/11/30 11:22:05;;;;;;;5.70;2.80;;;;;;;;;;5051303;28;20027;-73
2022/11/30 11:24:32;;;;;;;6.05;3.47;;;;;;;;;;5056862;28;20507;-72
2022/11/30 11:26:58;;;;;;;10.07;4.20;;;;;;;;;;5055237;28;20033;-73
2022/11/30 11:29:34;;;;;;;3.90;3.00;;;;;;;;;;5052160;28;20021;-73
2022/11/30 11:32:15;;;;;;;4.97;2.97;;;;;;;;;;5053837;28;20515;-74
2022/11/30 11:34:42;;;;;;;4.20;2.55;;;;;;;;;;5060134;28;20028;-74
2022/11/30 11:37:27;;;;;;;9.13;2.40;;;;;;;;;;5062744;28;20021;-74
2022/11/30 11:39:58;;;;;;;4.95;2.08;;;;;;;;;;5059476;28;20123;-73
2022/11/30 11:42:25;;;;;;;3.53;1.80;;;;;;;;;;5065237;28;20036;-73
2022/11/30 11:44:52;;;;;;;4.70;1.85;;;;;;;;;;5059507;28;20023;-73
2022/11/30 11:47:25;;;;;;;2.17;1.40;;;;;;;;;;5059710;28;20021;-73
2022/11/30 11:49:52;;;;;;;4.30;1.33;;;;;;;;;;5057840;28;20036;-73
2022/11/30 11:52:18;;;;;;;2.17;1.17;;;;;;;;;;5055629;28;20078;-74
2022/11/30 11:54:53;;;;;;;3.05;1.00;;;;;;;;;;5061435;28;20059;-73
2022/11/30 11:57:20;;;;;;;1.92;0.98;;;;;;;;;;5059126;28;20028;-73
2022/11/30 11:59:50;;;;;;;3.25;1.20;;;;;;;;;;5057662;28;20051;-76
2022/11/30 12:02:26;;;;;;;3.58;1.00;;;;;;;;;;5058948;28;20028;-73
2022/11/30 12:04:53;;;;;;;2.35;0.80;;;;;;;;;;5052942;28;20028;-73
2022/11/30 12:07:22;;;;;;;3.30;1.08;;;;;;;;;;5064508;28;20027;-74
2022/11/30 12:10:16;;;;;;;2.65;1.10;;;;;;;;;;5060773;28;20487;-73
2022/11/30 12:12:42;;;;;;;3.70;1.02;;;;;;;;;;5061522;28;20049;-73
2022/11/30 12:15:11;;;;;;;1.88;0.82;;;;;;;;;;5061561;28;20034;-74
2022/11/30 12:17:37;;;;;;;3.30;0.73;;;;;;;;;;5057498;28;20088;-73
2022/11/30 12:20:12;;;;;;;0.85;0.60;;;;;;;;;;5060854;28;20089;-74
2022/11/30 12:23:04;;;;;;;1.35;0.70;;;;;;;;;;5059844;28;20038;-73
2022/11/30 12:25:32;;;;;;;1.27;0.60;;;;;;;;;;5058727;28;20148;-73
2022/11/30 12:28:04;;;;;;;1.10;0.70;;;;;;;;;;5058758;28;20577;-73
2022/11/30 12:30:42;;;;;;;2.75;0.85;;;;;;;;;;5057866;28;20028;-74
2022/11/30 12:33:15;;;;;;;1.60;0.90;;;;;;;;;;5059051;28;20714;-74
2022/11/30 12:35:53;;;;;;;2.20;0.80;;;;;;;;;;5058710;28;20528;-74
2022/11/30 12:38:23;;;;;;;0.80;0.68;;;;;;;;;;5065194;28;21198;-74
2022/11/30 12:40:49;;;;;;;2.53;1.08;;;;;;;;;;5058572;28;20040;-76
2022/11/30 12:43:24;;;;;;;1.48;0.77;;;;;;;;;;5053307;28;20028;-72
2022/11/30 12:45:52;;;;;;;3.55;0.90;;;;;;;;;;5059043;28;20396;-76
2022/11/30 12:48:27;;;;;;;8.18;1.38;;;;;;;;;;5059451;28;20048;-83
2022/11/30 12:51:03;;;;;;;1.23;0.80;;;;;;;;;;5057610;28;20887;-76
2022/11/30 12:54:01;;;;;;;2.83;0.90;;;;;;;;;;5057463;28;20442;-79
2022/11/30 12:56:33;;;;;;;2.15;0.70;;;;;;;;;;5026857;28;20051;-78
2022/11/30 12:59:12;;;;;;;1.77;0.80;;;;;;;;;;5057994;28;20034;-78
2022/11/30 13:01:48;;;;;;;1.58;0.77;;;;;;;;;;5057985;28;20282;-74
2022/11/30 13:04:27;;;;;;;2.50;1.55;;;;;;;;;;5054045;28;20056;-74
2022/11/30 13:06:58;;;;;;;1.83;0.80;;;;;;;;;;5058244;28;20028;-74
2022/11/30 13:09:37;;;;;;;2.58;0.82;;;;;;;;;;5058992;28;20035;-74
2022/11/30 13:12:07;;;;;;;2.75;0.90;;;;;;;;;;5064462;28;20045;-76
2022/11/30 13:14:34;;;;;;;2.47;0.90;;;;;;;;;;5056419;28;20563;-74
2022/11/30 13:17:01;;;;;;;2.20;0.90;;;;;;;;;;5058716;28;20075;-74
2022/11/30 13:19:40;;;;;;;2.90;1.30;;;;;;;;;;5061229;28;20036;-76
2022/11/30 13:22:10;;;;;;;2.60;1.05;;;;;;;;;;5059903;28;20036;-75
2022/11/30 13:24:39;;;;;;;5.30;1.48;;;;;;;;;;5055183;28;20024;-75
2022/11/30 13:27:10;;;;;;;5.18;1.23;;;;;;;;;;5056059;28;20029;-75
2022/11/30 13:29:51;;;;;;;5.88;1.20;;;;;;;;;;5056410;28;20610;-73
2022/11/30 13:32:18;;;;;;;3.97;1.10;;;;;;;;;;5052381;28;20555;-75
2022/11/30 13:34:44;;;;;;;1.88;0.88;;;;;;;;;;5055098;28;20270;-76
2022/11/30 13:37:21;;;;;;;5.38;1.15;;;;;;;;;;5057365;28;20376;-73
2022/11/30 13:39:50;;;;;;;1.90;0.90;;;;;;;;;;5053723;28;20544;-75
2022/11/30 13:42:16;;;;;;;5.45;1.02;;;;;;;;;;5056773;28;20476;-74
2022/11/30 13:44:42;;;;;;;7.18;1.10;;;;;;;;;;5053458;28;20032;-75
2022/11/30 13:47:27;;;;;;;1.23;0.80;;;;;;;;;;5054228;28;20028;-75
2022/11/30 13:50:14;;;;;;;1.50;1.17;;;;;;;;;;5055454;28;20059;-75
2022/11/30 13:52:58;;;;;;;6.13;0.95;;;;;;;;;;5050231;28;20041;-74
2022/11/30 13:55:30;;;;;;;2.67;0.80;;;;;;;;;;5054695;28;20029;-75
2022/11/30 13:57:57;;;;;;;1.33;0.50;;;;;;;;;;5058448;28;20028;-78
2022/11/30 14:00:29;;;;;;;2.45;0.70;;;;;;;;;;5053816;28;20568;-74
2022/11/30 14:02:57;;;;;;;2.78;0.70;;;;;;;;;;5053696;28;20020;-76
2022/11/30 14:05:37;;;;;;;2.03;0.75;;;;;;;;;;5057608;28;20028;-77
2022/11/30 14:08:09;;;;;;;2.25;0.70;;;;;;;;;;5055677;28;20040;-77
2022/11/30 14:10:43;;;;;;;2.47;0.55;;;;;;;;;;5050163;28;20086;-76
2022/11/30 14:13:09;;;;;;;1.05;0.73;;;;;;;;;;5053662;28;20753;-76
2022/11/30 14:15:39;;;;;;;1.67;0.50;;;;;;;;;;5050028;28;20021;-76
2022/11/30 14:18:08;;;;;;;1.95;0.70;;;;;;;;;;5056789;28;20115;-75
2022/11/30 14:20:36;;;;;;;2.30;0.50;;;;;;;;;;5057982;28;20044;-75
2022/11/30 14:23:07;;;;;;;0.85;0.60;;;;;;;;;;5047834;28;20074;-76
2022/11/30 14:25:34;;;;;;;2.42;0.50;;;;;;;;;;5051355;28;20531;-75
2022/11/30 14:28:02;;;;;;;1.17;0.60;;;;;;;;;;5051444;28;20107;-76
2022/11/30 14:30:31;;;;;;;2.15;0.90;;;;;;;;;;5052999;28;20036;-75
2022/11/30 14:33:06;;;;;;;0.90;0.60;;;;;;;;;;5052241;28;20036;-75
2022/11/30 14:35:32;;;;;;;3.70;0.90;;;;;;;;;;5052977;28;20063;-78
2022/11/30 14:38:00;;;;;;;1.70;0.75;;;;;;;;;;5053132;28;20782;-78
2022/11/30 14:40:29;;;;;;;1.42;0.90;;;;;;;;;;5052648;28;20040;-76
2022/11/30 14:42:59;;;;;;;1.23;0.70;;;;;;;;;;5049877;28;20029;-76
2022/11/30 14:45:25;;;;;;;2.03;1.30;;;;;;;;;;5052443;28;20054;-75
2022/11/30 14:47:53;;;;;;;2.03;1.30;;;;;;;;;;5051833;28;20186;-76
2022/11/30 14:50:24;;;;;;;4.05;1.40;;;;;;;;;;5054098;28;20033;-75
2022/11/30 14:52:55;;;;;;;1.55;1.13;;;;;;;;;;5052917;28;20697;-77
2022/11/30 14:55:33;;;;;;;1.70;1.27;;;;;;;;;;5062753;28;20024;-77
2022/11/30 14:57:59;;;;;;;1.00;0.80;;;;;;;;;;5055622;28;20352;-77